This is the latest recevied weather packets stored in our database for station/object KB2UHF-8. If no packets are shown the sender has not sent any weather packets the latest 10 day(s).
| Time | Temp. | Humidity | Pressure | Rain* | Wind** | Luminosity | Snow |
|---|---|---|---|---|---|---|---|
| 1777716917 | 0.56° C | 79% | 1018.8 hPa | 0 mm | - | 0 W/m² | - |
| 1777716317 | 0.56° C | 79% | 1018.9 hPa | 0 mm | - | 0 W/m² | - |
| 1777715157 | 0.56° C | 75% | 1018.9 hPa | 0 mm | - | 0 W/m² | - |
| 1777711537 | 0.56° C | 73% | 1018.8 hPa | 0 mm | - | 0 W/m² | - |
| 1777709718 | 0.56° C | 72% | 1018.8 hPa | 0 mm | - | 0 W/m² | - |
| 1777704337 | 2.22° C | 64% | 1019.2 hPa | 0 mm | - | 0 W/m² | - |
| 1777703717 | 2.22° C | 63% | 1019.3 hPa | 0 mm | - | 0 W/m² | - |
| 1777702517 | 2.78° C | 60% | 1019.2 hPa | 0 mm | - | 0 W/m² | - |
| 1777699517 | 3.33° C | 57% | 1019.2 hPa | 0 mm | - | 0 W/m² | - |
| 1777695315 | 4.44° C | 51% | 1019 hPa | 0 mm | - | 0 W/m² | - |
| 1777694117 | 5.56° C | 49% | 1019.1 hPa | 0 mm | - | 0 W/m² | - |
| 1777692917 | 6.11° C | 47% | 1019.2 hPa | 0 mm | - | 0 W/m² | - |
| 1777691117 | 6.11° C | 47% | 1019.1 hPa | 0 mm | - | 0 W/m² | - |
| 1777686317 | 7.22° C | 45% | 1018.3 hPa | 0 mm | - | 0 W/m² | - |
| 1777684517 | 7.78° C | 43% | 1018.1 hPa | 0 mm | - | 0 W/m² | - |
| 1777680917 | 8.89° C | 41% | 1017.5 hPa | 0 mm | - | 41 W/m² | - |
| 1777680337 | 8.89° C | 38% | 1017.5 hPa | 0 mm | - | 66 W/m² | - |
| 1777679737 | 9.44° C | 41% | 1017.4 hPa | 0 mm | - | 130 W/m² | - |
| 1777677317 | 10° C | 40% | 1017.2 hPa | 0 mm | - | 304 W/m² | - |
| 1777674339 | 8.89° C | 40% | 1017 hPa | 0 mm | - | 127 W/m² | - |
| 1777671937 | 9.44° C | 41% | 1016.8 hPa | 0 mm | - | 170 W/m² | - |
| 1777668317 | 9.44° C | 41% | 1016.8 hPa | 0 mm | - | 447 W/m² | - |
| 1777667718 | 9.44° C | 43% | 1016.8 hPa | 0 mm | - | 256 W/m² | - |
| 1777665917 | 9.44° C | 40% | 1016.8 hPa | 0 mm | - | 725 W/m² | - |
| 1777664717 | 10° C | 36% | 1017 hPa | 0 mm | - | 997 W/m² | - |
* Rain latest hour (hover to see other rain measurements)
** Current wind speed in m/s (hover to see current wind gust speed)